createdAt,value
2022-10-26T00:01:45.248Z,60.73
2022-10-26T00:04:11.887Z,61.17
2022-10-26T00:06:38.499Z,61.04
2022-10-26T00:09:05.040Z,61.02
2022-10-26T00:11:31.604Z,61.33
2022-10-26T00:13:58.150Z,61.37
2022-10-26T00:16:26.413Z,61.11
2022-10-26T00:18:53.088Z,61.28
2022-10-26T00:21:19.743Z,61.24
2022-10-26T00:23:46.353Z,61.39
2022-10-26T00:26:12.984Z,60.94
2022-10-26T00:28:39.601Z,61.19
2022-10-26T00:31:07.474Z,61.10
2022-10-26T00:33:34.146Z,61.25
2022-10-26T00:36:00.809Z,61.22
2022-10-26T00:38:27.313Z,61.42
2022-10-26T00:40:53.913Z,61.41
2022-10-26T00:43:20.460Z,61.42
2022-10-26T00:45:47.303Z,61.06
2022-10-26T00:48:23.183Z,61.27
2022-10-26T00:50:49.798Z,61.77
2022-10-26T00:53:16.328Z,62.16
2022-10-26T00:55:44.907Z,62.08
2022-10-26T00:58:11.476Z,61.90
2022-10-26T01:00:38.018Z,61.86
2022-10-26T01:03:05.893Z,61.40
2022-10-26T01:05:32.573Z,61.44
2022-10-26T01:07:59.070Z,61.75
2022-10-26T01:10:26.142Z,61.69
2022-10-26T01:12:52.920Z,61.38
2022-10-26T01:15:20.284Z,61.71
2022-10-26T01:17:47.078Z,61.51
2022-10-26T01:20:32.387Z,61.69
2022-10-26T01:23:07.879Z,61.70
2022-10-26T01:25:43.520Z,61.43
2022-10-26T01:28:16.372Z,61.68
2022-10-26T01:30:44.368Z,61.90
2022-10-26T01:33:11.063Z,61.88
2022-10-26T01:35:49.937Z,62.13
2022-10-26T01:38:20.771Z,61.88
2022-10-26T01:40:50.131Z,62.07
2022-10-26T01:43:16.711Z,61.84
2022-10-26T01:45:44.042Z,61.72
2022-10-26T01:48:10.934Z,61.97
2022-10-26T01:50:37.510Z,61.96
2022-10-26T01:53:04.007Z,61.78
2022-10-26T01:55:33.431Z,61.81
2022-10-26T01:58:01.540Z,62.22
2022-10-26T02:00:28.327Z,61.98
2022-10-26T02:02:58.234Z,61.89
2022-10-26T02:05:43.636Z,62.05
2022-10-26T02:08:21.852Z,61.96
2022-10-26T02:10:48.510Z,62.39
2022-10-26T02:13:50.434Z,62.47
2022-10-26T02:16:28.090Z,62.44
2022-10-26T02:19:03.564Z,62.22
2022-10-26T02:21:33.986Z,62.06
2022-10-26T02:24:00.722Z,62.44
2022-10-26T02:26:28.722Z,62.30
2022-10-26T02:28:56.302Z,62.26
2022-10-26T02:31:23.478Z,62.31
2022-10-26T02:33:50.383Z,62.71
2022-10-26T02:36:18.022Z,62.63
2022-10-26T02:38:44.883Z,62.77
2022-10-26T02:41:11.375Z,62.41
2022-10-26T02:43:39.192Z,62.54
2022-10-26T02:46:07.668Z,63.17
2022-10-26T02:48:34.358Z,63.36
2022-10-26T02:51:02.543Z,63.23
2022-10-26T02:53:35.990Z,62.90
2022-10-26T02:56:04.443Z,63.14
2022-10-26T02:58:31.573Z,62.82
2022-10-26T03:00:58.213Z,63.22
2022-10-26T03:03:24.811Z,63.06
2022-10-26T03:05:51.428Z,63.19
2022-10-26T03:08:18.068Z,62.88
2022-10-26T03:10:45.007Z,63.26
2022-10-26T03:13:12.078Z,62.92
2022-10-26T03:15:38.735Z,63.09
2022-10-26T03:18:05.547Z,62.96
2022-10-26T03:20:32.195Z,62.99
2022-10-26T03:22:58.813Z,62.98
2022-10-26T03:25:25.587Z,63.13
2022-10-26T03:27:59.004Z,62.98
2022-10-26T03:30:25.997Z,62.95
2022-10-26T03:32:52.566Z,62.98
2022-10-26T03:35:19.204Z,63.36
2022-10-26T03:37:45.919Z,63.36
2022-10-26T03:40:12.882Z,63.07
2022-10-26T03:42:39.719Z,63.13
2022-10-26T03:45:06.774Z,63.01
2022-10-26T03:47:33.296Z,63.31
2022-10-26T03:50:00.257Z,63.04
2022-10-26T03:52:26.977Z,62.91
2022-10-26T03:54:53.551Z,62.94
2022-10-26T03:57:20.102Z,63.17
2022-10-26T03:59:46.690Z,63.17
2022-10-26T04:02:15.247Z,62.77
2022-10-26T04:04:41.923Z,62.88
2022-10-26T04:07:08.492Z,63.16
2022-10-26T04:09:35.108Z,62.89
2022-10-26T04:12:01.659Z,62.96
2022-10-26T04:14:28.287Z,63.30
2022-10-26T04:16:54.811Z,63.39
2022-10-26T04:19:21.475Z,63.04
2022-10-26T04:21:47.968Z,63.50
2022-10-26T04:24:14.625Z,63.54
2022-10-26T04:26:41.220Z,63.26
2022-10-26T04:29:09.244Z,63.57
2022-10-26T04:31:35.783Z,63.39
2022-10-26T04:34:02.461Z,63.54
2022-10-26T04:36:30.025Z,63.52
2022-10-26T04:38:56.647Z,63.35
2022-10-26T04:41:23.233Z,63.44
2022-10-26T04:43:49.893Z,63.54
2022-10-26T04:46:16.876Z,63.16
2022-10-26T04:48:43.619Z,63.14
2022-10-26T04:51:10.186Z,63.20
2022-10-26T04:53:36.713Z,63.42
2022-10-26T04:56:03.361Z,63.59
2022-10-26T04:58:30.039Z,63.43
2022-10-26T05:00:56.661Z,63.27
2022-10-26T05:03:23.285Z,63.37
2022-10-26T05:05:49.862Z,63.49
2022-10-26T05:08:16.526Z,63.09
2022-10-26T05:10:43.155Z,63.49
2022-10-26T05:13:10.060Z,63.68
2022-10-26T05:15:36.583Z,63.38
2022-10-26T05:18:04.207Z,63.65
2022-10-26T05:20:32.487Z,63.63
2022-10-26T05:22:59.650Z,63.64
2022-10-26T05:25:26.258Z,63.69
2022-10-26T05:27:52.850Z,63.72
2022-10-26T05:30:19.537Z,63.94
2022-10-26T05:32:49.609Z,63.88
2022-10-26T05:35:16.313Z,63.89
2022-10-26T05:37:42.818Z,63.67
2022-10-26T05:40:10.222Z,63.83
2022-10-26T05:42:36.719Z,63.64
2022-10-26T05:45:03.401Z,64.03
2022-10-26T05:47:29.970Z,63.81
2022-10-26T05:49:56.505Z,63.61
2022-10-26T05:52:22.998Z,63.99
2022-10-26T05:54:49.638Z,63.76
2022-10-26T05:57:16.262Z,63.57
2022-10-26T05:59:42.941Z,63.61
2022-10-26T06:02:12.345Z,63.58
2022-10-26T06:04:41.456Z,63.99
2022-10-26T06:07:12.026Z,63.95
2022-10-26T06:09:39.465Z,63.61
2022-10-26T06:12:07.440Z,63.72
2022-10-26T06:14:34.878Z,63.46
2022-10-26T06:17:12.360Z,63.95
2022-10-26T06:19:57.344Z,63.63
2022-10-26T06:22:33.097Z,63.63
2022-10-26T06:25:05.802Z,63.70
2022-10-26T06:27:51.317Z,63.63
2022-10-26T06:30:18.217Z,63.53
2022-10-26T06:32:45.002Z,63.92
2022-10-26T06:35:21.159Z,63.81
2022-10-26T06:37:48.117Z,63.52
2022-10-26T06:40:15.096Z,63.72
2022-10-26T06:42:41.831Z,63.85
2022-10-26T06:45:11.657Z,63.65
2022-10-26T06:47:44.072Z,63.57
2022-10-26T06:50:10.640Z,63.64
2022-10-26T06:52:44.559Z,63.95
2022-10-26T06:55:15.375Z,63.47
2022-10-26T06:57:42.651Z,63.67
2022-10-26T07:00:19.888Z,63.64
2022-10-26T07:02:46.755Z,64.00
2022-10-26T07:05:13.499Z,63.60
2022-10-26T07:07:43.774Z,63.94
2022-10-26T07:10:10.981Z,63.77
2022-10-26T07:12:37.833Z,63.56
2022-10-26T07:15:04.891Z,63.95
2022-10-26T07:17:31.594Z,63.65
2022-10-26T07:19:58.195Z,63.57
2022-10-26T07:22:25.338Z,63.90
2022-10-26T07:24:52.287Z,63.48
2022-10-26T07:27:21.563Z,63.43
2022-10-26T07:29:48.138Z,63.73
2022-10-26T07:32:14.598Z,63.39
2022-10-26T07:34:41.364Z,63.50
2022-10-26T07:37:08.010Z,63.72
2022-10-26T07:39:34.545Z,63.48
2022-10-26T07:42:01.081Z,63.73
2022-10-26T07:44:27.703Z,63.83
2022-10-26T07:46:54.236Z,63.67
2022-10-26T07:49:23.740Z,63.86
2022-10-26T07:51:51.519Z,63.55
2022-10-26T07:54:17.985Z,63.77
2022-10-26T07:56:44.600Z,63.41
2022-10-26T07:59:11.693Z,63.33
2022-10-26T08:01:38.453Z,63.43
2022-10-26T08:04:05.211Z,63.42
2022-10-26T08:06:31.792Z,63.77
2022-10-26T08:08:58.303Z,63.50
2022-10-26T08:11:25.159Z,63.86
2022-10-26T08:13:53.265Z,63.39
2022-10-26T08:16:20.042Z,63.45
2022-10-26T08:18:47.949Z,63.47
2022-10-26T08:21:21.617Z,63.76
2022-10-26T08:23:57.057Z,63.37
2022-10-26T08:26:23.853Z,63.48
2022-10-26T08:28:50.623Z,63.95
2022-10-26T08:31:17.131Z,63.82
2022-10-26T08:33:45.018Z,63.94
2022-10-26T08:36:12.274Z,63.52
2022-10-26T08:38:38.872Z,63.56
2022-10-26T08:41:06.722Z,63.87
2022-10-26T08:43:43.000Z,63.46
2022-10-26T08:46:11.682Z,63.44
2022-10-26T08:48:45.445Z,63.83
2022-10-26T08:51:13.425Z,63.93
2022-10-26T08:53:42.991Z,63.56
2022-10-26T08:56:16.242Z,63.43
2022-10-26T08:58:51.927Z,63.81
2022-10-26T09:01:18.717Z,63.50
2022-10-26T09:03:45.270Z,63.45
2022-10-26T09:06:24.347Z,63.73
2022-10-26T09:08:59.828Z,63.77
2022-10-26T09:11:41.845Z,63.34
2022-10-26T09:14:11.311Z,63.78
2022-10-26T09:16:37.899Z,63.51
2022-10-26T09:19:19.859Z,63.78
2022-10-26T09:22:05.365Z,63.77
2022-10-26T09:24:32.727Z,63.43
2022-10-26T09:27:00.065Z,63.73
2022-10-26T09:29:28.075Z,63.71
2022-10-26T09:31:54.743Z,63.48
2022-10-26T09:34:27.299Z,63.72
2022-10-26T09:36:55.230Z,63.73
2022-10-26T09:39:27.226Z,63.34
2022-10-26T09:41:57.259Z,63.36
2022-10-26T09:44:46.122Z,63.37
2022-10-26T09:47:19.920Z,63.41
2022-10-26T09:49:56.426Z,63.84
2022-10-26T09:52:23.051Z,63.42
2022-10-26T09:54:49.627Z,63.72
2022-10-26T09:57:16.437Z,63.65
2022-10-26T09:59:42.973Z,63.51
2022-10-26T10:02:28.362Z,63.15
2022-10-26T10:04:54.974Z,63.17
2022-10-26T10:07:21.496Z,63.52
2022-10-26T10:09:59.162Z,63.37
2022-10-26T10:12:25.790Z,63.64
2022-10-26T10:14:56.603Z,63.19
2022-10-26T10:17:23.470Z,62.99
2022-10-26T10:19:50.057Z,63.07
2022-10-26T10:22:18.651Z,63.26
2022-10-26T10:25:01.419Z,63.28
2022-10-26T10:27:28.885Z,63.21
2022-10-26T10:29:59.773Z,62.95
2022-10-26T10:32:35.911Z,63.05
2022-10-26T10:35:22.501Z,63.23
2022-10-26T10:37:49.202Z,62.70
2022-10-26T10:40:22.806Z,62.68
2022-10-26T10:42:50.268Z,62.95
2022-10-26T10:45:19.991Z,62.74
2022-10-26T10:47:58.157Z,62.88
2022-10-26T10:50:24.734Z,62.78
2022-10-26T10:52:52.845Z,62.77
2022-10-26T10:55:20.362Z,62.64
2022-10-26T10:58:05.667Z,62.68
2022-10-26T11:00:34.427Z,62.63
2022-10-26T11:03:07.066Z,62.08
2022-10-26T11:05:37.465Z,62.43
2022-10-26T11:08:12.336Z,62.09
2022-10-26T11:10:47.493Z,62.40
2022-10-26T11:13:18.398Z,62.17
2022-10-26T11:15:45.465Z,61.89
2022-10-26T11:18:41.520Z,61.86
2022-10-26T11:21:20.113Z,62.15
2022-10-26T11:23:48.492Z,62.03
2022-10-26T11:26:20.364Z,62.07
2022-10-26T11:28:48.810Z,62.12
2022-10-26T11:31:20.504Z,61.62
2022-10-26T11:33:49.602Z,61.97
2022-10-26T11:36:19.769Z,61.32
2022-10-26T11:38:56.920Z,61.42
2022-10-26T11:41:30.132Z,61.48
2022-10-26T11:44:03.197Z,61.40
2022-10-26T11:46:34.704Z,61.31
2022-10-26T11:49:16.513Z,61.19
2022-10-26T11:51:52.023Z,61.08
2022-10-26T11:54:26.109Z,61.11
2022-10-26T11:56:53.445Z,61.11
2022-10-26T11:59:21.091Z,60.74
2022-10-26T12:01:48.405Z,60.87
2022-10-26T12:04:15.001Z,60.67
2022-10-26T12:06:41.676Z,60.87
2022-10-26T12:09:10.401Z,60.48
2022-10-26T12:11:37.093Z,60.80
2022-10-26T12:14:19.641Z,60.79
2022-10-26T12:16:49.440Z,60.76
2022-10-26T12:19:21.666Z,60.68
2022-10-26T12:21:49.441Z,60.74
2022-10-26T12:24:23.521Z,60.39
2022-10-26T12:26:59.741Z,60.43
2022-10-26T12:29:28.239Z,60.32
2022-10-26T12:31:54.862Z,60.38
2022-10-26T12:34:30.720Z,60.22
2022-10-26T12:36:57.333Z,59.79
2022-10-26T12:39:40.520Z,59.54
2022-10-26T12:42:10.236Z,59.69
2022-10-26T12:44:44.252Z,59.91
2022-10-26T12:47:11.196Z,59.79
2022-10-26T12:49:56.837Z,59.26
2022-10-26T12:52:26.729Z,59.62
2022-10-26T12:55:02.376Z,59.71
2022-10-26T12:57:31.471Z,59.41
2022-10-26T13:00:00.645Z,59.71
2022-10-26T13:02:36.697Z,59.30
2022-10-26T13:05:06.019Z,59.28
2022-10-26T13:07:37.973Z,59.21
2022-10-26T13:10:05.881Z,59.37
2022-10-26T13:12:36.989Z,58.93
2022-10-26T13:15:04.507Z,58.85
2022-10-26T13:17:31.937Z,59.45
2022-10-26T13:19:59.563Z,59.16
2022-10-26T13:22:26.433Z,59.29
2022-10-26T13:25:02.936Z,59.14
2022-10-26T13:27:50.131Z,59.11
2022-10-26T13:30:22.060Z,59.28
2022-10-26T13:32:49.747Z,58.80
2022-10-26T13:35:16.338Z,58.90
2022-10-26T13:37:47.466Z,59.09
2022-10-26T13:40:18.261Z,58.84
2022-10-26T13:42:45.420Z,58.79
2022-10-26T13:45:13.561Z,59.14
2022-10-26T13:47:51.595Z,58.95
2022-10-26T13:50:19.799Z,58.73
2022-10-26T13:52:47.815Z,59.06
2022-10-26T13:55:26.717Z,59.09
2022-10-26T13:58:12.176Z,59.10
2022-10-26T14:00:38.847Z,58.54
2022-10-26T14:03:16.800Z,58.85
2022-10-26T14:05:43.832Z,58.70
2022-10-26T14:08:11.900Z,58.67
2022-10-26T14:10:39.680Z,58.91
2022-10-26T14:13:09.982Z,58.68
2022-10-26T14:15:36.606Z,59.06
2022-10-26T14:18:03.822Z,58.93
2022-10-26T14:20:30.920Z,59.13
2022-10-26T14:22:57.559Z,59.09
2022-10-26T14:25:35.955Z,59.27
2022-10-26T14:28:23.115Z,59.20
2022-10-26T14:30:51.291Z,59.17
2022-10-26T14:33:19.554Z,59.57
2022-10-26T14:35:46.289Z,59.44
2022-10-26T14:38:20.368Z,59.43
2022-10-26T14:40:47.040Z,59.25
2022-10-26T14:43:16.592Z,59.38
2022-10-26T14:45:49.505Z,59.64
2022-10-26T14:48:30.095Z,59.72
2022-10-26T14:51:02.774Z,59.80
2022-10-26T14:53:33.276Z,60.15
2022-10-26T14:56:00.199Z,59.77
2022-10-26T15:01:17.981Z,60.06
2022-10-26T15:03:44.827Z,60.46
2022-10-26T15:06:29.915Z,60.46
2022-10-26T15:08:59.912Z,60.24
2022-10-26T15:11:27.108Z,60.56
2022-10-26T15:13:53.845Z,60.21
2022-10-26T15:16:21.921Z,60.38
2022-10-26T15:18:49.292Z,60.58
2022-10-26T15:21:30.557Z,60.44
2022-10-26T15:23:57.251Z,60.25
2022-10-26T15:26:24.575Z,60.31
2022-10-26T15:28:52.797Z,60.62
2022-10-26T15:31:19.343Z,60.37
2022-10-26T15:33:51.712Z,60.33
2022-10-26T15:36:24.617Z,60.68
2022-10-26T15:38:53.996Z,60.29
2022-10-26T15:41:38.865Z,60.72
2022-10-26T15:44:11.249Z,60.46
2022-10-26T15:46:41.038Z,60.87
2022-10-26T15:49:08.041Z,60.61
2022-10-26T15:51:34.699Z,60.53
2022-10-26T15:54:04.703Z,60.91
2022-10-26T15:56:31.468Z,60.51
2022-10-26T15:58:58.125Z,60.58
2022-10-26T16:01:25.675Z,60.89
2022-10-26T16:03:52.500Z,60.56
2022-10-26T16:06:24.790Z,60.84
2022-10-26T16:08:52.093Z,60.60
2022-10-26T16:11:18.648Z,60.67
2022-10-26T16:13:45.360Z,60.54
2022-10-26T16:16:16.121Z,60.68
2022-10-26T16:18:42.843Z,60.53
2022-10-26T16:21:11.773Z,60.55
2022-10-26T16:23:38.363Z,60.97
2022-10-26T16:26:05.073Z,60.77
2022-10-26T16:28:31.703Z,60.64
2022-10-26T16:31:05.114Z,60.96
2022-10-26T16:33:31.836Z,60.59
2022-10-26T16:35:59.211Z,60.52
2022-10-26T16:38:26.589Z,60.57
2022-10-26T16:41:02.486Z,60.66
2022-10-26T16:43:30.707Z,60.53
2022-10-26T16:45:57.253Z,60.93
2022-10-26T16:48:23.911Z,60.54
2022-10-26T16:50:50.579Z,60.90
2022-10-26T16:53:17.271Z,60.53
2022-10-26T16:55:44.294Z,60.53
2022-10-26T16:58:11.006Z,60.84
2022-10-26T17:00:37.734Z,60.50
2022-10-26T17:03:04.438Z,60.88
2022-10-26T17:05:31.053Z,60.53
2022-10-26T17:07:57.685Z,60.81
2022-10-26T17:10:25.796Z,60.48
2022-10-26T17:12:52.738Z,60.58
2022-10-26T17:15:20.213Z,60.62
2022-10-26T17:17:47.762Z,60.61
2022-10-26T17:20:14.532Z,60.52
2022-10-26T17:22:41.213Z,60.84
2022-10-26T17:25:07.961Z,60.97
2022-10-26T17:27:34.601Z,60.84
2022-10-26T17:30:01.183Z,60.59
2022-10-26T17:32:27.817Z,60.48
2022-10-26T17:34:54.465Z,60.76
2022-10-26T17:37:21.131Z,60.43
2022-10-26T17:39:47.742Z,60.43
2022-10-26T17:42:14.377Z,60.31
2022-10-26T17:44:40.880Z,60.68
2022-10-26T17:47:08.851Z,60.34
2022-10-26T17:49:36.423Z,60.46
2022-10-26T17:52:03.659Z,60.41
2022-10-26T17:54:30.215Z,60.39
2022-10-26T17:56:56.941Z,60.82
2022-10-26T17:59:23.471Z,60.38
2022-10-26T18:01:50.527Z,60.73
2022-10-26T18:04:17.257Z,60.77
2022-10-26T18:06:43.880Z,60.67
2022-10-26T18:09:10.465Z,60.62
2022-10-26T18:11:37.091Z,60.47
2022-10-26T18:14:03.681Z,60.48
2022-10-26T18:16:31.210Z,60.11
2022-10-26T18:19:01.868Z,60.27
2022-10-26T18:21:29.568Z,60.09
2022-10-26T18:23:56.171Z,60.26
2022-10-26T18:26:23.663Z,60.48
2022-10-26T18:28:50.240Z,59.96
2022-10-26T18:31:19.868Z,59.98
2022-10-26T18:33:46.561Z,59.97
2022-10-26T18:36:13.999Z,60.01
2022-10-26T18:38:40.674Z,59.97
2022-10-26T18:41:08.007Z,60.07
2022-10-26T18:43:34.677Z,59.93
2022-10-26T18:46:05.583Z,60.19
2022-10-26T18:48:32.381Z,60.29
2022-10-26T18:51:05.872Z,60.06
2022-10-26T18:53:33.395Z,59.84
2022-10-26T18:56:00.823Z,59.82
2022-10-26T18:58:31.384Z,59.78
2022-10-26T19:01:24.293Z,60.01
2022-10-26T19:03:54.736Z,59.80
2022-10-26T19:06:25.205Z,59.67
2022-10-26T19:08:51.904Z,59.70
2022-10-26T19:11:19.516Z,59.99
2022-10-26T19:13:46.190Z,60.05
2022-10-26T19:16:33.596Z,59.95
2022-10-26T19:19:06.013Z,59.32
2022-10-26T19:21:32.836Z,59.35
2022-10-26T19:23:59.876Z,59.72
2022-10-26T19:26:34.228Z,59.38
2022-10-26T19:29:06.157Z,59.40
2022-10-26T19:31:32.944Z,59.36
2022-10-26T19:33:59.906Z,59.24
2022-10-26T19:36:27.351Z,59.36
2022-10-26T19:38:54.315Z,59.07
2022-10-26T19:41:23.498Z,59.45
2022-10-26T19:43:50.310Z,59.46
2022-10-26T19:46:18.073Z,59.25
2022-10-26T19:48:48.204Z,59.45
2022-10-26T19:51:14.941Z,58.98
2022-10-26T19:53:41.492Z,59.00
2022-10-26T19:56:12.355Z,59.12
2022-10-26T19:58:42.582Z,59.05
2022-10-26T20:01:09.771Z,58.92
2022-10-26T20:03:36.533Z,59.23
2022-10-26T20:06:08.548Z,59.28
2022-10-26T20:08:38.401Z,59.25
2022-10-26T20:11:05.473Z,58.83
2022-10-26T20:13:32.324Z,58.76
2022-10-26T20:15:59.017Z,58.75
2022-10-26T20:18:25.680Z,58.86
2022-10-26T20:20:52.337Z,59.01
2022-10-26T20:23:19.085Z,59.30
2022-10-26T20:25:49.416Z,59.06
2022-10-26T20:28:16.496Z,59.17
2022-10-26T20:30:43.615Z,59.06
2022-10-26T20:33:10.540Z,59.35
2022-10-26T20:35:37.235Z,59.38
2022-10-26T20:38:04.720Z,58.98
2022-10-26T20:40:31.600Z,58.70
2022-10-26T20:42:58.502Z,58.84
2022-10-26T20:45:26.232Z,59.34
2022-10-26T20:47:54.656Z,59.20
2022-10-26T20:50:22.005Z,58.95
2022-10-26T20:52:55.221Z,58.90
2022-10-26T20:55:27.969Z,58.76
2022-10-26T20:57:56.461Z,59.07
2022-10-26T21:00:23.065Z,58.81
2022-10-26T21:02:50.052Z,58.75
2022-10-26T21:05:18.380Z,58.78
2022-10-26T21:07:44.997Z,58.79
2022-10-26T21:10:11.681Z,58.90
2022-10-26T21:12:38.692Z,59.12
2022-10-26T21:15:05.598Z,58.76
2022-10-26T21:17:34.478Z,59.13
2022-10-26T21:20:01.023Z,58.85
2022-10-26T21:22:27.651Z,59.04
2022-10-26T21:24:54.213Z,59.23
2022-10-26T21:27:20.771Z,58.90
2022-10-26T21:29:47.314Z,58.99
2022-10-26T21:32:13.976Z,59.35
2022-10-26T21:34:40.585Z,59.18
2022-10-26T21:37:07.197Z,59.66
2022-10-26T21:39:33.836Z,59.54
2022-10-26T21:42:00.580Z,59.60
2022-10-26T21:44:40.370Z,59.37
2022-10-26T21:47:07.449Z,59.79
2022-10-26T21:49:34.048Z,59.63
2022-10-26T21:52:00.793Z,59.58
2022-10-26T21:54:27.407Z,59.42
2022-10-26T21:56:53.997Z,59.90
2022-10-26T21:59:20.561Z,59.30
2022-10-26T22:01:47.447Z,59.55
2022-10-26T22:04:14.115Z,59.42
2022-10-26T22:06:40.806Z,60.06
2022-10-26T22:09:07.421Z,59.57
2022-10-26T22:11:34.118Z,59.61
2022-10-26T22:14:00.626Z,59.39
2022-10-26T22:16:28.228Z,59.50
2022-10-26T22:18:55.445Z,59.65
2022-10-26T22:21:23.522Z,59.54
2022-10-26T22:23:50.159Z,59.52
2022-10-26T22:26:20.153Z,59.55
2022-10-26T22:28:47.518Z,59.40
2022-10-26T22:31:15.394Z,59.27
2022-10-26T22:33:42.230Z,59.54
2022-10-26T22:36:09.938Z,59.64
2022-10-26T22:38:36.577Z,59.55
2022-10-26T22:41:03.108Z,59.49
2022-10-26T22:43:29.861Z,59.18
2022-10-26T22:45:59.990Z,59.23
2022-10-26T22:48:26.666Z,59.04
2022-10-26T22:50:53.163Z,59.04
2022-10-26T22:53:19.787Z,59.55
2022-10-26T22:55:46.341Z,59.44
2022-10-26T22:58:13.082Z,59.38
2022-10-26T23:00:39.698Z,59.10
2022-10-26T23:03:06.359Z,59.33
2022-10-26T23:05:33.039Z,59.29
2022-10-26T23:07:59.639Z,59.33
2022-10-26T23:10:26.115Z,59.25
2022-10-26T23:12:53.022Z,59.29
2022-10-26T23:15:19.616Z,59.32
2022-10-26T23:17:46.154Z,59.31
2022-10-26T23:20:12.654Z,59.46
2022-10-26T23:22:39.311Z,59.55
2022-10-26T23:25:06.066Z,59.52
2022-10-26T23:27:32.751Z,59.46
2022-10-26T23:29:59.356Z,59.27
2022-10-26T23:32:25.950Z,59.27
2022-10-26T23:34:52.434Z,59.29
2022-10-26T23:37:19.637Z,59.30
2022-10-26T23:39:46.141Z,59.30
2022-10-26T23:42:12.755Z,59.49
2022-10-26T23:44:39.262Z,59.50
2022-10-26T23:47:05.980Z,59.64
2022-10-26T23:49:32.507Z,59.72
2022-10-26T23:51:59.099Z,59.38
2022-10-26T23:54:25.598Z,59.64
2022-10-26T23:56:52.179Z,59.69
2022-10-26T23:59:19.707Z,59.21
